Time;durP1;ratioP1;P1;durP2;ratioP2;P2;SDS_P1;SDS_P2;PMS_P1;PMS_P2;Temp;Humidity;BMP_temperature;BMP_pressure;BME280_temperature;BME280_humidity;BME280_pressure;Samples;Min_cycle;Max_cycle;Signal;HPM_P1;HPM_P2
2023/03/13 00:01:52;;;;;;;13.98;2.67;;;7.20;99.90;;;;;;5017655;28;20048;-71
2023/03/13 00:04:17;;;;;;;13.82;3.20;;;7.20;99.90;;;;;;5018392;28;20037;-71
2023/03/13 00:06:43;;;;;;;16.13;3.72;;;7.20;99.90;;;;;;5014341;28;20061;-72
2023/03/13 00:09:11;;;;;;;14.07;3.05;;;7.20;99.90;;;;;;5018466;28;20124;-71
2023/03/13 00:11:37;;;;;;;14.45;3.10;;;7.20;99.90;;;;;;5012548;28;20113;-71
2023/03/13 00:14:05;;;;;;;10.55;2.20;;;7.20;99.90;;;;;;5005780;28;20113;-71
2023/03/13 00:16:33;;;;;;;16.00;3.03;;;7.10;99.90;;;;;;5002412;28;20033;-71
2023/03/13 00:18:59;;;;;;;16.80;3.08;;;6.90;99.90;;;;;;5000209;28;20112;-71
2023/03/13 00:21:26;;;;;;;14.02;3.55;;;6.80;99.90;;;;;;5010321;28;20109;-67
2023/03/13 00:23:52;;;;;;;18.23;3.90;;;6.80;99.90;;;;;;5006469;28;20049;-68
2023/03/13 00:26:20;;;;;;;17.77;3.10;;;6.80;99.90;;;;;;5017199;28;20114;-71
2023/03/13 00:28:46;;;;;;;17.30;3.28;;;6.80;99.90;;;;;;5007378;28;20055;-70
2023/03/13 00:31:29;;;;;;;16.55;2.92;;;6.70;99.90;;;;;;5003233;28;20030;-70
2023/03/13 00:33:59;;;;;;;14.48;3.63;;;6.60;99.90;;;;;;5010011;28;20469;-70
2023/03/13 00:36:27;;;;;;;14.95;3.08;;;6.60;99.90;;;;;;5007836;28;20163;-68
2023/03/13 00:38:54;;;;;;;10.73;2.92;;;6.60;99.90;;;;;;5015217;28;20501;-71
2023/03/13 00:41:26;;;;;;;14.70;2.97;;;6.60;99.90;;;;;;5017338;28;20026;-71
2023/03/13 00:43:52;;;;;;;17.02;4.00;;;6.60;99.90;;;;;;5008417;28;20083;-71
2023/03/13 00:46:20;;;;;;;18.55;3.80;;;6.60;99.90;;;;;;5011986;28;20030;-71
2023/03/13 00:48:47;;;;;;;13.77;3.35;;;6.50;99.90;;;;;;5007977;28;20041;-71
2023/03/13 00:51:14;;;;;;;14.75;3.42;;;6.50;99.90;;;;;;5011668;28;20030;-71
2023/03/13 00:53:40;;;;;;;10.70;3.30;;;6.40;99.90;;;;;;5006819;28;20025;-68
2023/03/13 00:56:09;;;;;;;11.82;2.67;;;6.50;99.90;;;;;;5014403;28;20132;-71
2023/03/13 00:58:36;;;;;;;15.70;3.72;;;6.50;99.90;;;;;;5011643;28;20026;-70
2023/03/13 01:01:25;;;;;;;16.38;3.05;;;6.40;99.90;;;;;;5022635;28;20132;-71
2023/03/13 01:03:57;;;;;;;24.02;3.97;;;6.50;99.90;;;;;;5016824;28;20048;-69
2023/03/13 01:06:26;;;;;;;12.27;3.33;;;6.50;99.90;;;;;;5016998;28;20390;-71
2023/03/13 01:08:52;;;;;;;19.10;3.47;;;6.50;99.90;;;;;;5010922;28;20867;-71
2023/03/13 01:11:26;;;;;;;16.70;3.10;;;6.50;99.90;;;;;;5019468;28;20413;-68
2023/03/13 01:14:03;;;;;;;16.85;2.95;;;6.40;99.90;;;;;;5008434;28;21014;-69
2023/03/13 01:16:30;;;;;;;11.05;2.80;;;6.30;99.90;;;;;;5006640;28;20037;-68
2023/03/13 01:18:59;;;;;;;13.57;2.67;;;6.40;99.90;;;;;;5009371;28;20105;-70
2023/03/13 01:21:26;;;;;;;15.15;2.72;;;6.40;99.90;;;;;;5007012;28;20048;-67
2023/03/13 01:23:52;;;;;;;16.50;3.40;;;6.30;99.90;;;;;;5005219;28;20026;-71
2023/03/13 01:26:19;;;;;;;13.65;2.70;;;6.40;99.90;;;;;;5007602;28;20061;-71
2023/03/13 01:28:45;;;;;;;15.45;3.20;;;6.40;99.90;;;;;;5008821;28;20327;-70
2023/03/13 01:31:17;;;;;;;12.52;2.55;;;6.40;99.90;;;;;;5006088;28;20026;-70
2023/03/13 01:33:44;;;;;;;12.90;3.00;;;6.40;99.90;;;;;;5007898;28;20026;-71
2023/03/13 01:36:11;;;;;;;15.88;2.20;;;6.50;99.90;;;;;;5008862;28;20132;-71
2023/03/13 01:38:37;;;;;;;15.50;2.53;;;6.50;99.90;;;;;;5008533;28;20111;-71
2023/03/13 01:41:04;;;;;;;13.98;2.75;;;6.50;99.90;;;;;;5007528;28;20037;-71
2023/03/13 01:43:32;;;;;;;14.75;2.38;;;6.50;99.90;;;;;;4989639;28;20372;-69
2023/03/13 01:46:08;;;;;;;12.70;2.70;;;6.50;99.90;;;;;;5011710;28;20489;-72
2023/03/13 01:48:47;;;;;;;9.93;2.28;;;6.40;99.90;;;;;;5001672;28;20092;-71
2023/03/13 01:51:24;;;;;;;12.35;2.53;;;6.40;99.90;;;;;;5013059;28;20038;-72
2023/03/13 01:54:20;;;;;;;11.75;2.50;;;6.40;99.90;;;;;;5005689;28;20133;-70
2023/03/13 01:57:03;;;;;;;13.27;2.38;;;6.50;99.90;;;;;;5009111;28;20036;-71
2023/03/13 01:59:52;;;;;;;14.50;2.55;;;6.50;99.90;;;;;;5015340;28;20029;-67
2023/03/13 02:02:19;;;;;;;9.52;2.28;;;6.50;99.90;;;;;;4990369;28;20021;-71
2023/03/13 02:04:47;;;;;;;12.55;2.88;;;6.40;99.90;;;;;;5013078;28;20382;-70
2023/03/13 02:07:31;;;;;;;16.63;3.25;;;6.40;99.90;;;;;;5014289;28;20029;-71
2023/03/13 02:09:56;;;;;;;12.27;2.63;;;6.40;99.90;;;;;;5008037;28;20138;-71
2023/03/13 02:12:43;;;;;;;10.68;2.80;;;6.40;99.90;;;;;;5009213;28;20108;-71
2023/03/13 02:15:18;;;;;;;15.75;2.90;;;6.50;99.90;;;;;;5008202;28;20046;-71
2023/03/13 02:17:45;;;;;;;14.95;2.10;;;6.40;99.90;;;;;;5008878;28;20029;-71
2023/03/13 02:20:12;;;;;;;10.82;2.47;;;6.40;99.90;;;;;;5010850;28;20042;-71
2023/03/13 02:23:02;;;;;;;12.32;2.65;;;6.30;99.90;;;;;;5008781;28;20049;-71
2023/03/13 02:25:40;;;;;;;9.40;2.22;;;6.30;99.90;;;;;;5013734;28;20034;-68
2023/03/13 02:28:14;;;;;;;13.68;2.72;;;6.30;99.90;;;;;;4993079;28;20390;-71
2023/03/13 02:30:43;;;;;;;10.65;2.42;;;6.40;99.90;;;;;;5005574;28;20041;-70
2023/03/13 02:33:10;;;;;;;14.75;2.90;;;6.40;99.90;;;;;;4998207;28;20095;-71
2023/03/13 02:35:36;;;;;;;8.65;2.35;;;6.50;99.90;;;;;;5007546;28;20037;-71
2023/03/13 02:38:05;;;;;;;11.40;1.95;;;6.50;99.90;;;;;;5013028;28;20109;-71
2023/03/13 02:40:34;;;;;;;12.55;2.10;;;6.60;99.90;;;;;;5004566;28;20036;-68
2023/03/13 02:43:03;;;;;;;10.38;2.50;;;6.60;99.90;;;;;;5011166;28;20120;-71
2023/03/13 02:45:29;;;;;;;12.23;2.22;;;6.60;99.90;;;;;;5006264;28;20036;-67
2023/03/13 02:47:55;;;;;;;11.55;2.20;;;6.60;99.90;;;;;;5011526;28;20390;-71
2023/03/13 02:50:21;;;;;;;11.25;2.28;;;6.60;99.90;;;;;;5013592;28;20666;-71
2023/03/13 02:53:07;;;;;;;9.98;2.38;;;6.70;99.90;;;;;;5014864;28;20044;-71
2023/03/13 02:55:39;;;;;;;13.18;1.88;;;6.60;99.90;;;;;;5007607;28;20038;-68
2023/03/13 02:58:05;;;;;;;10.07;1.80;;;6.70;99.90;;;;;;5006507;28;20034;-72
2023/03/13 03:00:31;;;;;;;10.57;2.00;;;6.60;99.90;;;;;;5018095;28;20025;-68
2023/03/13 03:02:57;;;;;;;13.07;2.08;;;6.60;99.90;;;;;;5013761;28;20486;-70
2023/03/13 03:05:23;;;;;;;10.73;2.05;;;6.60;99.90;;;;;;5017629;28;20453;-71
2023/03/13 03:07:49;;;;;;;12.77;2.10;;;6.60;99.90;;;;;;5016393;28;20026;-71
2023/03/13 03:10:16;;;;;;;10.57;2.50;;;6.60;99.90;;;;;;5015694;28;20112;-71
2023/03/13 03:12:42;;;;;;;13.82;2.30;;;6.70;99.90;;;;;;5015954;28;20643;-71
2023/03/13 03:15:08;;;;;;;13.23;2.22;;;6.60;99.90;;;;;;5014077;28;20045;-72
2023/03/13 03:17:33;;;;;;;11.40;2.15;;;6.60;99.90;;;;;;5001466;28;20076;-67
2023/03/13 03:19:59;;;;;;;9.20;2.10;;;6.60;99.90;;;;;;5005892;28;20386;-72
2023/03/13 03:22:25;;;;;;;8.45;1.83;;;6.80;99.90;;;;;;5015207;28;20425;-72
2023/03/13 03:24:50;;;;;;;9.75;2.42;;;6.70;99.90;;;;;;5006676;28;20596;-70
2023/03/13 03:27:16;;;;;;;12.07;2.17;;;6.70;99.90;;;;;;5010625;28;20026;-71
2023/03/13 03:29:42;;;;;;;12.40;2.45;;;6.50;99.90;;;;;;5004876;28;20399;-71
2023/03/13 03:32:07;;;;;;;9.07;2.40;;;6.60;99.90;;;;;;5006827;28;20095;-72
2023/03/13 03:34:33;;;;;;;14.13;1.98;;;6.60;99.90;;;;;;5024805;28;20034;-67
2023/03/13 03:36:59;;;;;;;7.90;2.05;;;6.80;99.90;;;;;;5019967;28;20462;-72
2023/03/13 03:39:24;;;;;;;9.80;1.90;;;6.60;99.90;;;;;;5021525;28;20041;-71
2023/03/13 03:41:50;;;;;;;7.13;1.92;;;6.60;99.90;;;;;;5023746;28;20042;-71
2023/03/13 03:44:15;;;;;;;12.45;2.17;;;6.10;99.90;;;;;;5014165;28;20444;-72
2023/03/13 03:46:41;;;;;;;11.88;2.30;;;6.80;99.90;;;;;;5025045;28;20477;-71
2023/03/13 03:49:07;;;;;;;10.80;2.33;;;6.70;99.90;;;;;;5014444;28;20058;-71
2023/03/13 03:51:32;;;;;;;11.48;2.47;;;6.80;99.90;;;;;;4996310;28;20486;-71
2023/03/13 03:53:58;;;;;;;8.73;1.80;;;6.80;99.90;;;;;;5008488;28;20057;-71
2023/03/13 03:56:24;;;;;;;13.07;1.95;;;6.90;99.90;;;;;;5010000;28;20084;-73
2023/03/13 03:58:50;;;;;;;8.88;2.20;;;6.80;99.90;;;;;;5011256;28;20057;-71
2023/03/13 04:01:15;;;;;;;7.55;2.17;;;7.20;99.90;;;;;;5014297;28;20030;-70
2023/03/13 04:03:41;;;;;;;8.23;2.65;;;6.90;99.90;;;;;;5008943;28;20104;-69
2023/03/13 04:06:08;;;;;;;9.23;2.22;;;6.80;99.90;;;;;;5009846;28;20091;-69
2023/03/13 04:08:33;;;;;;;8.75;2.22;;;6.80;99.90;;;;;;5010209;28;20029;-71
2023/03/13 04:11:00;;;;;;;18.08;3.15;;;6.80;99.90;;;;;;5009473;28;20534;-71
2023/03/13 04:13:26;;;;;;;8.48;2.53;;;6.60;99.90;;;;;;5009619;28;20494;-71
2023/03/13 04:15:52;;;;;;;11.55;2.50;;;6.60;99.90;;;;;;5006343;28;20044;-71
2023/03/13 04:18:18;;;;;;;8.63;2.03;;;6.50;99.90;;;;;;5008661;28;20038;-70
2023/03/13 04:20:44;;;;;;;6.90;1.98;;;6.30;99.90;;;;;;5009349;28;20547;-70
2023/03/13 04:23:10;;;;;;;8.65;2.50;;;6.40;99.90;;;;;;5013497;28;20461;-71
2023/03/13 04:25:35;;;;;;;9.15;2.47;;;6.40;99.90;;;;;;5010929;28;20033;-68
2023/03/13 04:28:01;;;;;;;12.48;2.70;;;6.40;99.90;;;;;;5008584;28;20037;-70
2023/03/13 04:30:27;;;;;;;12.40;2.72;;;6.40;99.90;;;;;;5011508;28;20037;-70
2023/03/13 04:32:53;;;;;;;10.70;3.22;;;6.40;99.90;;;;;;5013394;28;20021;-71
2023/03/13 04:35:21;;;;;;;8.93;2.70;;;6.30;99.90;;;;;;5009891;28;20041;-70
2023/03/13 04:37:47;;;;;;;10.20;2.17;;;6.30;99.90;;;;;;5009943;28;20031;-70
2023/03/13 04:40:13;;;;;;;11.48;2.15;;;6.40;99.90;;;;;;5008534;28;20056;-71
2023/03/13 04:42:40;;;;;;;12.18;2.17;;;6.40;99.90;;;;;;5010710;28;20075;-68
2023/03/13 04:45:09;;;;;;;9.48;2.00;;;6.60;99.90;;;;;;4996487;28;20188;-71
2023/03/13 04:47:35;;;;;;;9.02;1.90;;;6.60;99.90;;;;;;5018814;28;20686;-71
2023/03/13 04:50:00;;;;;;;9.05;1.95;;;6.70;99.90;;;;;;5017828;28;20148;-70
2023/03/13 04:52:26;;;;;;;10.10;1.98;;;6.80;99.90;;;;;;5009032;28;20035;-70
2023/03/13 04:54:51;;;;;;;12.55;3.08;;;6.80;99.90;;;;;;5007376;28;20091;-68
2023/03/13 04:57:17;;;;;;;10.15;2.33;;;6.80;99.90;;;;;;5010258;28;20061;-71
2023/03/13 04:59:43;;;;;;;6.40;2.25;;;6.80;99.90;;;;;;5008767;28;20025;-70
2023/03/13 05:02:12;;;;;;;8.00;2.03;;;6.80;99.90;;;;;;5009722;28;20045;-71
2023/03/13 05:04:37;;;;;;;9.25;2.25;;;6.80;99.90;;;;;;5021648;28;20036;-68
2023/03/13 05:07:03;;;;;;;5.15;1.80;;;6.90;99.90;;;;;;5015724;28;20037;-70
2023/03/13 05:09:29;;;;;;;8.88;2.10;;;7.00;99.90;;;;;;5008582;28;20445;-71
2023/03/13 05:11:54;;;;;;;8.60;2.50;;;7.00;99.90;;;;;;5010992;28;20054;-70
2023/03/13 05:14:20;;;;;;;10.35;1.67;;;7.10;99.90;;;;;;5013426;28;20029;-71
2023/03/13 05:16:46;;;;;;;10.77;1.83;;;7.20;99.90;;;;;;5004367;28;20030;-71
2023/03/13 05:19:12;;;;;;;8.95;2.03;;;7.20;99.90;;;;;;5013841;28;20470;-70
2023/03/13 05:21:37;;;;;;;4.78;1.25;;;7.30;99.90;;;;;;5014318;28;20037;-70
2023/03/13 05:24:03;;;;;;;7.10;1.90;;;7.30;99.90;;;;;;5010808;28;20478;-70
2023/03/13 05:26:29;;;;;;;7.57;2.25;;;7.40;99.90;;;;;;5016465;28;20029;-71
2023/03/13 05:28:54;;;;;;;3.70;1.20;;;7.40;99.90;;;;;;5007598;28;20382;-70
2023/03/13 05:31:20;;;;;;;7.93;1.80;;;7.30;99.90;;;;;;5009726;28;20466;-71
2023/03/13 05:33:45;;;;;;;3.70;1.40;;;7.40;99.90;;;;;;5007560;28;20080;-70
2023/03/13 05:36:11;;;;;;;5.50;1.45;;;7.40;99.90;;;;;;5008431;28;20096;-69
2023/03/13 05:38:37;;;;;;;5.05;1.30;;;7.50;99.90;;;;;;5017690;28;20033;-70
2023/03/13 05:41:02;;;;;;;10.93;1.95;;;7.50;99.90;;;;;;5006273;28;20470;-70
2023/03/13 05:43:28;;;;;;;6.50;1.92;;;7.50;99.90;;;;;;5006962;28;20470;-71
2023/03/13 05:45:54;;;;;;;10.20;3.33;;;7.50;99.90;;;;;;5018700;28;20025;-71
2023/03/13 05:48:19;;;;;;;9.00;3.45;;;7.40;99.90;;;;;;5009852;28;20026;-71
2023/03/13 05:50:46;;;;;;;11.38;3.03;;;7.20;99.90;;;;;;5010530;28;20080;-67
2023/03/13 05:53:11;;;;;;;7.40;2.30;;;7.30;99.90;;;;;;5010984;28;20041;-70
2023/03/13 05:55:37;;;;;;;5.35;2.10;;;7.50;99.90;;;;;;5015115;28;20045;-70
2023/03/13 05:58:03;;;;;;;9.20;1.92;;;7.60;99.90;;;;;;5022767;28;20026;-70
2023/03/13 06:00:28;;;;;;;7.50;2.10;;;7.70;99.90;;;;;;4989996;28;20434;-68
2023/03/13 06:02:54;;;;;;;5.35;1.95;;;7.80;99.90;;;;;;5007815;28;20025;-70
2023/03/13 06:05:20;;;;;;;5.65;1.70;;;8.00;99.90;;;;;;5013738;28;20039;-71
2023/03/13 06:07:47;;;;;;;6.05;2.30;;;8.00;99.90;;;;;;5007631;28;20030;-68
2023/03/13 06:10:13;;;;;;;9.50;1.63;;;8.10;99.90;;;;;;5007417;28;20125;-70
2023/03/13 06:12:39;;;;;;;5.60;1.90;;;8.10;99.90;;;;;;5016134;28;20022;-70
2023/03/13 06:15:06;;;;;;;5.32;1.50;;;8.10;99.90;;;;;;5010869;28;20068;-70
2023/03/13 06:17:31;;;;;;;6.97;1.95;;;8.10;99.90;;;;;;5011869;28;20088;-70
2023/03/13 06:19:57;;;;;;;4.28;1.90;;;8.20;99.90;;;;;;5006285;28;20033;-70
2023/03/13 06:22:22;;;;;;;9.85;2.20;;;8.20;99.90;;;;;;5006772;28;20034;-70
2023/03/13 06:24:49;;;;;;;4.28;1.35;;;8.20;99.90;;;;;;4995794;28;20083;-68
2023/03/13 06:27:15;;;;;;;4.78;1.90;;;8.20;99.90;;;;;;5018365;28;20022;-71
2023/03/13 06:29:41;;;;;;;5.40;1.55;;;8.40;99.90;;;;;;5010975;28;20107;-70
2023/03/13 06:32:07;;;;;;;4.95;1.17;;;8.50;99.90;;;;;;5015446;28;20879;-71
2023/03/13 06:34:32;;;;;;;5.80;2.10;;;8.60;99.90;;;;;;5001948;28;20029;-70
2023/03/13 06:36:59;;;;;;;8.27;2.03;;;8.70;99.90;;;;;;5020584;28;20037;-71
2023/03/13 06:39:25;;;;;;;4.05;1.27;;;8.70;99.90;;;;;;5009883;28;20034;-70
2023/03/13 06:41:50;;;;;;;5.47;1.65;;;8.60;99.90;;;;;;5010618;28;20378;-70
2023/03/13 06:44:16;;;;;;;4.28;1.40;;;8.60;99.90;;;;;;5006967;28;20473;-70
2023/03/13 06:46:42;;;;;;;6.10;1.60;;;8.60;99.90;;;;;;5012085;28;20022;-70
2023/03/13 06:49:07;;;;;;;7.13;1.60;;;8.70;99.90;;;;;;5013630;28;20542;-71
2023/03/13 06:51:33;;;;;;;5.00;1.52;;;8.80;99.90;;;;;;5011518;28;20434;-71
2023/03/13 06:54:01;;;;;;;4.07;1.13;;;9.00;99.90;;;;;;5008988;28;20061;-70
2023/03/13 06:56:27;;;;;;;5.72;1.30;;;9.20;99.90;;;;;;5011166;28;20080;-70
2023/03/13 06:58:52;;;;;;;6.38;1.33;;;9.30;99.90;;;;;;5009844;28;20053;-70
2023/03/13 07:01:18;;;;;;;4.97;1.42;;;9.50;99.90;;;;;;5016815;28;20034;-71
2023/03/13 07:03:47;;;;;;;10.45;1.60;;;9.60;99.90;;;;;;5014380;28;20056;-67
2023/03/13 07:06:12;;;;;;;3.33;1.27;;;9.70;99.90;;;;;;5011655;28;20124;-71
2023/03/13 07:08:38;;;;;;;8.43;1.55;;;9.70;99.90;;;;;;5018277;28;20113;-69
2023/03/13 07:11:07;;;;;;;3.03;1.10;;;9.80;99.90;;;;;;5010761;28;20076;-70
2023/03/13 07:13:34;;;;;;;5.53;1.10;;;9.90;99.90;;;;;;5011804;28;20030;-70
2023/03/13 07:16:08;;;;;;;4.38;1.05;;;10.10;99.90;;;;;;4976677;28;20041;-71
2023/03/13 07:18:35;;;;;;;1.40;0.73;;;10.20;99.90;;;;;;4992150;28;20541;-70
2023/03/13 07:21:05;;;;;;;4.05;0.82;;;10.30;99.90;;;;;;5006134;28;20529;-69
2023/03/13 07:23:32;;;;;;;3.92;1.00;;;10.30;99.90;;;;;;5011694;28;20029;-69
2023/03/13 07:26:01;;;;;;;1.65;0.77;;;10.30;99.90;;;;;;5010849;28;20509;-70
2023/03/13 07:28:28;;;;;;;8.02;1.20;;;10.40;99.90;;;;;;5011528;28;20030;-71
2023/03/13 07:30:54;;;;;;;1.73;0.80;;;10.50;99.90;;;;;;5009921;28;20026;-70
2023/03/13 07:33:19;;;;;;;5.40;0.68;;;10.60;99.90;;;;;;5018766;28;20029;-71
2023/03/13 07:35:51;;;;;;;2.47;0.77;;;10.60;99.90;;;;;;5011134;28;20060;-69
2023/03/13 07:38:18;;;;;;;5.07;0.88;;;10.70;99.90;;;;;;5011005;28;20092;-70
2023/03/13 07:41:03;;;;;;;2.00;0.82;;;10.80;99.90;;;;;;5013455;28;20030;-72
2023/03/13 07:43:30;;;;;;;2.22;1.00;;;10.80;99.90;;;;;;5010737;28;20075;-71
2023/03/13 07:45:58;;;;;;;1.95;0.70;;;10.80;99.90;;;;;;5012051;28;20103;-70
2023/03/13 07:48:30;;;;;;;1.45;0.60;;;10.90;99.90;;;;;;5003868;28;20065;-70
2023/03/13 07:50:56;;;;;;;2.70;0.60;;;10.90;99.90;;;;;;5013525;28;20049;-70
2023/03/13 07:53:22;;;;;;;2.75;0.80;;;11.00;99.90;;;;;;5011103;28;20038;-70
2023/03/13 07:56:03;;;;;;;1.92;0.60;;;11.00;99.90;;;;;;5017469;28;20516;-68
2023/03/13 07:58:31;;;;;;;3.20;0.70;;;11.00;99.90;;;;;;5018287;28;20033;-71
2023/03/13 08:00:58;;;;;;;21.17;1.33;;;11.10;99.90;;;;;;5007250;28;20058;-70
2023/03/13 08:03:24;;;;;;;3.08;0.70;;;11.60;99.90;;;;;;5012868;28;20104;-70
2023/03/13 08:06:01;;;;;;;1.55;0.60;;;11.20;99.90;;;;;;5008462;28;20037;-68
2023/03/13 08:08:27;;;;;;;5.75;0.82;;;11.00;99.90;;;;;;5017061;28;20505;-70
2023/03/13 08:10:57;;;;;;;2.90;0.60;;;11.30;99.90;;;;;;5017112;28;20087;-70
2023/03/13 08:13:23;;;;;;;4.45;0.80;;;11.20;99.90;;;;;;5014840;28;20026;-70
2023/03/13 08:15:49;;;;;;;1.77;0.60;;;11.30;99.90;;;;;;5013895;28;20056;-68
2023/03/13 08:18:14;;;;;;;2.42;0.80;;;11.20;99.90;;;;;;5005895;28;20108;-71
2023/03/13 08:20:40;;;;;;;3.67;1.00;;;11.60;99.90;;;;;;5005457;28;20053;-70
2023/03/13 08:23:06;;;;;;;2.15;0.85;;;11.40;99.90;;;;;;5009298;28;20034;-70
2023/03/13 08:25:32;;;;;;;2.55;0.77;;;11.60;99.90;;;;;;5009549;28;20661;-70
2023/03/13 08:27:57;;;;;;;1.52;0.70;;;11.50;99.90;;;;;;5016872;28;20034;-70
2023/03/13 08:30:23;;;;;;;1.15;0.50;;;11.30;99.90;;;;;;5005733;28;20028;-70
2023/03/13 08:32:49;;;;;;;1.83;0.50;;;11.40;99.90;;;;;;4993047;28;20030;-70
2023/03/13 08:35:14;;;;;;;1.20;0.40;;;11.40;99.90;;;;;;5015191;28;20045;-70
2023/03/13 08:37:40;;;;;;;1.98;0.60;;;11.30;99.90;;;;;;5009304;28;20042;-70
2023/03/13 08:40:10;;;;;;;0.82;0.50;;;11.40;99.90;;;;;;5024811;28;20480;-70
2023/03/13 08:42:37;;;;;;;2.13;0.50;;;11.50;99.90;;;;;;5016525;28;20502;-70
2023/03/13 08:45:04;;;;;;;1.75;0.57;;;11.60;99.90;;;;;;5010693;28;20765;-70
2023/03/13 08:47:33;;;;;;;3.33;0.65;;;12.10;99.90;;;;;;5009125;28;20030;-71
2023/03/13 08:49:58;;;;;;;1.25;0.60;;;11.80;99.90;;;;;;5005105;28;20119;-70
2023/03/13 08:52:25;;;;;;;1.88;0.50;;;11.90;99.90;;;;;;5013647;28;20630;-70
2023/03/13 08:54:50;;;;;;;1.17;0.50;;;11.90;99.90;;;;;;5012231;28;20045;-68
2023/03/13 08:57:16;;;;;;;1.98;0.50;;;12.10;99.90;;;;;;5008927;28;20034;-70
2023/03/13 08:59:42;;;;;;;2.00;0.60;;;12.50;99.90;;;;;;5009135;28;20030;-70
2023/03/13 09:02:08;;;;;;;1.10;0.60;;;12.30;99.90;;;;;;5009972;28;20042;-71
2023/03/13 09:04:34;;;;;;;1.65;0.60;;;12.50;99.90;;;;;;5007089;28;20093;-71
2023/03/13 09:07:00;;;;;;;2.35;0.88;;;12.60;99.90;;;;;;5019715;28;20466;-71
2023/03/13 09:09:25;;;;;;;3.03;0.60;;;12.70;99.90;;;;;;5009090;28;20045;-70
2023/03/13 09:11:51;;;;;;;1.73;0.68;;;12.60;99.90;;;;;;5009219;28;20056;-70
2023/03/13 09:14:17;;;;;;;1.42;0.80;;;13.30;99.90;;;;;;5008522;28;20040;-70
2023/03/13 09:16:45;;;;;;;2.72;0.60;;;13.40;99.90;;;;;;5009296;28;20442;-70
2023/03/13 09:19:11;;;;;;;2.58;0.60;;;13.60;99.90;;;;;;5007723;28;20088;-70
2023/03/13 09:21:37;;;;;;;3.70;0.70;;;13.40;99.90;;;;;;5008700;28;20546;-70
2023/03/13 09:24:03;;;;;;;3.78;0.60;;;13.50;99.90;;;;;;5014336;28;20065;-70
2023/03/13 09:26:29;;;;;;;3.58;0.77;;;13.40;99.90;;;;;;5009118;28;20036;-70
2023/03/13 09:28:58;;;;;;;2.42;0.80;;;13.30;99.90;;;;;;5008238;28;20049;-68
2023/03/13 09:31:29;;;;;;;1.00;0.60;;;13.30;99.90;;;;;;5011012;28;20038;-70
2023/03/13 09:33:54;;;;;;;2.58;0.60;;;13.20;99.90;;;;;;5009190;28;20026;-68
2023/03/13 09:36:22;;;;;;;2.28;0.88;;;13.30;99.90;;;;;;5008306;28;20052;-70
2023/03/13 09:38:48;;;;;;;1.77;0.68;;;13.30;99.90;;;;;;4975341;28;20038;-70
2023/03/13 09:41:17;;;;;;;4.32;0.60;;;13.40;99.90;;;;;;5015678;28;20026;-70
2023/03/13 09:43:51;;;;;;;1.48;0.63;;;13.40;99.90;;;;;;5006309;28;20033;-70
2023/03/13 09:46:24;;;;;;;1.60;0.93;;;13.40;99.90;;;;;;5008006;28;20029;-70
2023/03/13 09:48:56;;;;;;;1.05;0.73;;;13.40;99.90;;;;;;5007999;28;20053;-70
2023/03/13 09:51:35;;;;;;;2.38;0.90;;;13.40;99.90;;;;;;5016524;28;20048;-70
2023/03/13 09:54:30;;;;;;;2.45;0.75;;;13.40;99.90;;;;;;5008312;28;20035;-71
2023/03/13 09:57:02;;;;;;;2.75;0.55;;;13.50;99.90;;;;;;5001980;28;20041;-68
2023/03/13 09:59:37;;;;;;;1.33;0.68;;;13.50;99.90;;;;;;5008634;28;20526;-70
2023/03/13 10:02:14;;;;;;;1.02;0.70;;;13.60;99.90;;;;;;5020274;28;20033;-71
2023/03/13 10:04:46;;;;;;;2.55;0.63;;;13.80;99.90;;;;;;5008322;28;20072;-70
2023/03/13 10:07:11;;;;;;;3.85;0.70;;;13.90;99.90;;;;;;4990301;28;20478;-71
2023/03/13 10:09:39;;;;;;;2.88;0.73;;;13.80;99.90;;;;;;5008497;28;20041;-70
2023/03/13 10:12:05;;;;;;;2.30;0.80;;;13.90;99.90;;;;;;5012163;28;20026;-70
2023/03/13 10:14:51;;;;;;;1.67;0.65;;;13.70;99.90;;;;;;5019735;28;20614;-70
2023/03/13 10:17:34;;;;;;;2.00;1.00;;;13.60;99.90;;;;;;5011092;28;20103;-70
2023/03/13 10:20:11;;;;;;;2.78;0.85;;;13.60;99.90;;;;;;5002918;28;20034;-69
2023/03/13 10:22:37;;;;;;;3.75;0.90;;;13.70;99.90;;;;;;5020086;28;20037;-71
2023/03/13 10:25:10;;;;;;;2.30;0.80;;;13.60;99.90;;;;;;5011783;28;20048;-71
2023/03/13 10:28:03;;;;;;;2.28;0.93;;;13.60;99.90;;;;;;5020924;28;20138;-69
2023/03/13 10:30:31;;;;;;;2.47;1.15;;;13.60;99.90;;;;;;5011690;28;20450;-70
2023/03/13 10:33:18;;;;;;;2.78;1.05;;;13.60;99.90;;;;;;5012071;28;20132;-68
2023/03/13 10:35:47;;;;;;;2.38;1.00;;;13.70;99.90;;;;;;5011294;28;20064;-71
2023/03/13 10:38:18;;;;;;;2.15;0.90;;;13.80;99.90;;;;;;5011268;28;20034;-71
2023/03/13 10:40:55;;;;;;;2.17;0.70;;;13.90;99.90;;;;;;5019840;28;20024;-70
2023/03/13 10:43:20;;;;;;;8.55;0.80;;;14.00;99.90;;;;;;5011212;28;20605;-70
2023/03/13 10:45:46;;;;;;;1.92;0.93;;;14.20;99.90;;;;;;5011966;28;20043;-70
2023/03/13 10:48:17;;;;;;;2.22;0.90;;;14.30;99.90;;;;;;5010172;28;20057;-70
2023/03/13 10:50:44;;;;;;;;;;;14.40;99.90;;;;;;5012621;28;20056;-70
2023/03/13 10:53:30;;;;;;;2.50;1.10;;;14.60;99.90;;;;;;5010812;28;19987;-70
2023/03/13 10:56:13;;;;;;;3.50;1.15;;;15.10;99.90;;;;;;5011676;28;20042;-70
2023/03/13 10:58:43;;;;;;;1.88;1.02;;;15.40;99.90;;;;;;5011575;28;20462;-71
2023/03/13 11:01:39;;;;;;;1.85;0.82;;;15.50;99.90;;;;;;5028629;28;20025;-70
2023/03/13 11:04:24;;;;;;;2.95;1.23;;;15.60;99.90;;;;;;5009259;28;20345;-70
2023/03/13 11:06:53;;;;;;;3.58;1.15;;;15.60;99.90;;;;;;5012231;28;20030;-70
2023/03/13 11:09:19;;;;;;;2.33;1.20;;;15.50;99.90;;;;;;5012697;28;20045;-70
2023/03/13 11:11:46;;;;;;;2.97;1.08;;;15.20;99.90;;;;;;5016313;28;20026;-71
2023/03/13 11:14:33;;;;;;;3.42;0.93;;;15.20;99.90;;;;;;5010587;28;20034;-70
2023/03/13 11:17:22;;;;;;;3.47;1.15;;;15.50;99.90;;;;;;5011197;28;20038;-68
2023/03/13 11:20:18;;;;;;;5.20;1.45;;;15.50;99.90;;;;;;5013661;28;20034;-71
2023/03/13 11:23:18;;;;;;;2.35;1.23;;;15.40;99.90;;;;;;5011690;28;20050;-71
2023/03/13 11:25:44;;;;;;;3.88;1.20;;;15.80;99.90;;;;;;4993657;28;20048;-70
2023/03/13 11:28:47;;;;;;;3.10;1.40;;;15.80;99.90;;;;;;5009850;28;20038;-70
2023/03/13 11:31:20;;;;;;;6.63;1.67;;;15.70;99.90;;;;;;4965842;28;20112;-71
2023/03/13 11:34:01;;;;;;;4.28;1.40;;;15.80;99.90;;;;;;4993551;28;20124;-70
2023/03/13 11:37:07;;;;;;;5.60;1.63;;;15.60;99.90;;;;;;4993144;28;20100;-71
2023/03/13 11:40:04;;;;;;;5.22;1.50;;;15.70;99.90;;;;;;4997890;28;20575;-70
2023/03/13 11:42:56;;;;;;;3.97;1.55;;;15.60;99.90;;;;;;5019830;28;20022;-70
2023/03/13 11:45:31;;;;;;;4.65;1.75;;;15.60;99.90;;;;;;5018703;28;20044;-70
2023/03/13 11:48:15;;;;;;;5.97;1.65;;;15.60;99.90;;;;;;5024721;28;20541;-70
2023/03/13 11:50:50;;;;;;;2.55;1.67;;;15.60;99.90;;;;;;5022623;28;20057;-71
2023/03/13 11:53:19;;;;;;;5.07;1.70;;;15.80;99.90;;;;;;5009960;28;20107;-70
2023/03/13 11:56:06;;;;;;;3.83;1.60;;;15.90;99.90;;;;;;5005876;28;20037;-70
2023/03/13 11:58:51;;;;;;;6.10;1.85;;;16.00;99.90;;;;;;5010643;28;20117;-70
2023/03/13 12:01:19;;;;;;;2.63;1.63;;;15.90;99.90;;;;;;5010007;28;20034;-71
2023/03/13 12:03:50;;;;;;;4.30;1.73;;;16.20;99.90;;;;;;5010734;28;20032;-71
2023/03/13 12:06:22;;;;;;;2.78;1.67;;;16.10;99.90;;;;;;5010500;28;20042;-70
2023/03/13 12:08:53;;;;;;;2.38;1.50;;;16.20;99.90;;;;;;5009511;28;20034;-70
2023/03/13 12:11:30;;;;;;;5.57;1.88;;;16.40;99.90;;;;;;5017190;28;20038;-70
2023/03/13 12:14:15;;;;;;;4.15;1.70;;;16.60;99.90;;;;;;5002772;28;20056;-70
2023/03/13 12:16:50;;;;;;;5.47;2.25;;;16.80;99.90;;;;;;5010059;28;20041;-71
2023/03/13 12:19:39;;;;;;;5.95;1.95;;;16.80;99.90;;;;;;5009804;28;20033;-70
2023/03/13 12:22:38;;;;;;;4.53;1.70;;;17.20;99.90;;;;;;5009968;28;20033;-68
2023/03/13 12:25:20;;;;;;;4.18;1.60;;;17.40;99.90;;;;;;4989553;28;20073;-69
2023/03/13 12:27:51;;;;;;;4.75;1.70;;;17.70;99.90;;;;;;5025622;28;20040;-71
2023/03/13 12:30:38;;;;;;;4.07;1.67;;;17.60;99.90;;;;;;5016759;28;20025;-70
2023/03/13 12:33:18;;;;;;;5.75;1.70;;;17.60;99.90;;;;;;5008963;28;20045;-69
2023/03/13 12:35:51;;;;;;;4.63;1.40;;;17.70;99.90;;;;;;5010096;28;20030;-70
2023/03/13 12:38:27;;;;;;;4.50;1.40;;;18.00;99.90;;;;;;5008352;28;20025;-71
2023/03/13 12:41:46;;;;;;;4.25;1.77;;;17.70;99.90;;;;;;5017630;28;20030;-71
2023/03/13 12:44:18;;;;;;;4.20;1.55;;;17.50;99.90;;;;;;4928975;29;20218;-71
2023/03/13 12:46:47;;;;;;;4.93;1.50;;;17.90;99.90;;;;;;4929607;29;20032;-70
2023/03/13 12:49:13;;;;;;;13.45;1.30;;;18.20;99.90;;;;;;4928362;29;20044;-70
2023/03/13 12:51:57;;;;;;;4.78;1.70;;;18.00;99.90;;;;;;4928630;29;20043;-70
2023/03/13 12:54:52;;;;;;;4.50;1.70;;;17.80;99.90;;;;;;4928787;29;20046;-70
2023/03/13 12:57:44;;;;;;;4.25;1.63;;;17.80;99.90;;;;;;4928574;29;20054;-71
2023/03/13 13:00:22;;;;;;;2.65;1.40;;;18.10;99.90;;;;;;4888998;29;20062;-69
2023/03/13 13:03:06;;;;;;;7.85;1.55;;;18.40;99.90;;;;;;4929241;29;20059;-70
2023/03/13 13:05:32;;;;;;;2.70;1.63;;;18.50;99.90;;;;;;4928941;29;20531;-71
2023/03/13 13:07:58;;;;;;;2.15;1.10;;;18.90;99.90;;;;;;4922198;29;20044;-70